sensor_id;sensor_type;location;lat;lon;timestamp;P1;durP1;ratioP1;P2;durP2;ratioP2
6828;SDS011;17930;48.592;8.868;2023-12-04T00:01:51;31.38;;;13.73;;
6828;SDS011;17930;48.592;8.868;2023-12-04T00:04:18;30.52;;;12.30;;
6828;SDS011;17930;48.592;8.868;2023-12-04T00:06:44;28.05;;;12.50;;
6828;SDS011;17930;48.592;8.868;2023-12-04T00:09:12;25.13;;;11.52;;
6828;SDS011;17930;48.592;8.868;2023-12-04T00:11:39;36.10;;;18.50;;
6828;SDS011;17930;48.592;8.868;2023-12-04T00:14:06;27.10;;;13.27;;
6828;SDS011;17930;48.592;8.868;2023-12-04T00:16:33;27.00;;;13.35;;
6828;SDS011;17930;48.592;8.868;2023-12-04T00:19:00;29.15;;;12.75;;
6828;SDS011;17930;48.592;8.868;2023-12-04T00:21:27;24.33;;;12.00;;
6828;SDS011;17930;48.592;8.868;2023-12-04T00:23:53;25.42;;;11.85;;
6828;SDS011;17930;48.592;8.868;2023-12-04T00:26:21;25.88;;;12.15;;
6828;SDS011;17930;48.592;8.868;2023-12-04T00:28:48;30.77;;;12.82;;
6828;SDS011;17930;48.592;8.868;2023-12-04T00:31:15;26.90;;;12.25;;
6828;SDS011;17930;48.592;8.868;2023-12-04T00:33:42;27.33;;;12.75;;
6828;SDS011;17930;48.592;8.868;2023-12-04T00:36:09;49.47;;;16.98;;
6828;SDS011;17930;48.592;8.868;2023-12-04T00:38:36;38.65;;;15.40;;
6828;SDS011;17930;48.592;8.868;2023-12-04T00:41:03;48.15;;;15.95;;
6828;SDS011;17930;48.592;8.868;2023-12-04T00:43:32;35.95;;;14.13;;
6828;SDS011;17930;48.592;8.868;2023-12-04T00:45:59;45.08;;;14.93;;
6828;SDS011;17930;48.592;8.868;2023-12-04T00:48:26;35.67;;;14.55;;
6828;SDS011;17930;48.592;8.868;2023-12-04T00:50:54;38.78;;;15.60;;
6828;SDS011;17930;48.592;8.868;2023-12-04T00:53:21;35.65;;;14.02;;
6828;SDS011;17930;48.592;8.868;2023-12-04T00:55:48;33.60;;;13.32;;
6828;SDS011;17930;48.592;8.868;2023-12-04T00:58:14;26.33;;;13.07;;
6828;SDS011;17930;48.592;8.868;2023-12-04T01:00:42;30.58;;;12.48;;
6828;SDS011;17930;48.592;8.868;2023-12-04T01:03:09;35.30;;;13.55;;
6828;SDS011;17930;48.592;8.868;2023-12-04T01:05:36;27.48;;;12.73;;
6828;SDS011;17930;48.592;8.868;2023-12-04T01:08:03;27.48;;;13.52;;
6828;SDS011;17930;48.592;8.868;2023-12-04T01:10:29;29.60;;;12.40;;
6828;SDS011;17930;48.592;8.868;2023-12-04T01:12:56;33.15;;;13.60;;
6828;SDS011;17930;48.592;8.868;2023-12-04T01:15:23;26.73;;;10.82;;
6828;SDS011;17930;48.592;8.868;2023-12-04T01:17:51;29.17;;;12.63;;
6828;SDS011;17930;48.592;8.868;2023-12-04T01:20:18;22.35;;;10.25;;
6828;SDS011;17930;48.592;8.868;2023-12-04T01:22:44;21.70;;;10.80;;
6828;SDS011;17930;48.592;8.868;2023-12-04T01:25:11;23.42;;;11.13;;
6828;SDS011;17930;48.592;8.868;2023-12-04T01:27:38;25.10;;;11.05;;
6828;SDS011;17930;48.592;8.868;2023-12-04T01:30:05;27.15;;;12.02;;
6828;SDS011;17930;48.592;8.868;2023-12-04T01:32:34;26.60;;;10.93;;
6828;SDS011;17930;48.592;8.868;2023-12-04T01:35:02;22.13;;;10.48;;
6828;SDS011;17930;48.592;8.868;2023-12-04T01:37:30;18.35;;;9.30;;
6828;SDS011;17930;48.592;8.868;2023-12-04T01:39:57;24.10;;;11.30;;
6828;SDS011;17930;48.592;8.868;2023-12-04T01:42:24;23.38;;;10.23;;
6828;SDS011;17930;48.592;8.868;2023-12-04T01:44:50;23.25;;;10.65;;
6828;SDS011;17930;48.592;8.868;2023-12-04T01:47:17;20.55;;;11.02;;
6828;SDS011;17930;48.592;8.868;2023-12-04T01:49:45;24.13;;;11.55;;
6828;SDS011;17930;48.592;8.868;2023-12-04T01:52:13;24.15;;;11.18;;
6828;SDS011;17930;48.592;8.868;2023-12-04T01:54:39;24.63;;;11.65;;
6828;SDS011;17930;48.592;8.868;2023-12-04T01:57:07;26.67;;;12.55;;
6828;SDS011;17930;48.592;8.868;2023-12-04T01:59:34;29.33;;;13.35;;
6828;SDS011;17930;48.592;8.868;2023-12-04T02:02:01;23.95;;;12.88;;
6828;SDS011;17930;48.592;8.868;2023-12-04T02:04:29;27.77;;;11.95;;
6828;SDS011;17930;48.592;8.868;2023-12-04T02:06:57;27.83;;;11.68;;
6828;SDS011;17930;48.592;8.868;2023-12-04T02:09:25;25.40;;;11.70;;
6828;SDS011;17930;48.592;8.868;2023-12-04T02:11:52;27.33;;;13.13;;
6828;SDS011;17930;48.592;8.868;2023-12-04T02:14:19;21.98;;;10.48;;
6828;SDS011;17930;48.592;8.868;2023-12-04T02:16:46;21.40;;;10.65;;
6828;SDS011;17930;48.592;8.868;2023-12-04T02:19:14;33.03;;;10.88;;
6828;SDS011;17930;48.592;8.868;2023-12-04T02:21:41;22.85;;;10.73;;
6828;SDS011;17930;48.592;8.868;2023-12-04T02:24:09;21.13;;;9.10;;
6828;SDS011;17930;48.592;8.868;2023-12-04T02:26:39;27.50;;;11.95;;
6828;SDS011;17930;48.592;8.868;2023-12-04T02:29:14;26.17;;;12.25;;
6828;SDS011;17930;48.592;8.868;2023-12-04T02:31:45;24.42;;;10.48;;
6828;SDS011;17930;48.592;8.868;2023-12-04T02:34:13;28.85;;;12.35;;
6828;SDS011;17930;48.592;8.868;2023-12-04T02:36:42;23.70;;;10.55;;
6828;SDS011;17930;48.592;8.868;2023-12-04T02:39:11;24.83;;;10.32;;
6828;SDS011;17930;48.592;8.868;2023-12-04T02:41:38;19.40;;;9.60;;
6828;SDS011;17930;48.592;8.868;2023-12-04T02:44:05;19.08;;;10.35;;
6828;SDS011;17930;48.592;8.868;2023-12-04T02:46:32;24.33;;;11.07;;
6828;SDS011;17930;48.592;8.868;2023-12-04T02:48:58;18.88;;;10.02;;
6828;SDS011;17930;48.592;8.868;2023-12-04T02:51:25;21.30;;;9.38;;
6828;SDS011;17930;48.592;8.868;2023-12-04T02:53:52;24.95;;;10.98;;
6828;SDS011;17930;48.592;8.868;2023-12-04T02:56:20;18.65;;;10.05;;
6828;SDS011;17930;48.592;8.868;2023-12-04T02:58:47;17.98;;;9.95;;
6828;SDS011;17930;48.592;8.868;2023-12-04T03:01:13;22.13;;;10.40;;
6828;SDS011;17930;48.592;8.868;2023-12-04T03:03:40;21.38;;;9.73;;
6828;SDS011;17930;48.592;8.868;2023-12-04T03:06:07;24.08;;;11.88;;
6828;SDS011;17930;48.592;8.868;2023-12-04T03:08:34;21.08;;;9.23;;
6828;SDS011;17930;48.592;8.868;2023-12-04T03:11:01;19.83;;;9.43;;
6828;SDS011;17930;48.592;8.868;2023-12-04T03:13:29;18.15;;;9.52;;
6828;SDS011;17930;48.592;8.868;2023-12-04T03:15:56;18.65;;;9.57;;
6828;SDS011;17930;48.592;8.868;2023-12-04T03:18:22;21.10;;;9.25;;
6828;SDS011;17930;48.592;8.868;2023-12-04T03:20:50;18.35;;;9.43;;
6828;SDS011;17930;48.592;8.868;2023-12-04T03:23:17;20.50;;;11.23;;
6828;SDS011;17930;48.592;8.868;2023-12-04T03:25:44;21.08;;;10.52;;
6828;SDS011;17930;48.592;8.868;2023-12-04T03:28:10;19.45;;;9.85;;
6828;SDS011;17930;48.592;8.868;2023-12-04T03:30:39;22.60;;;9.75;;
6828;SDS011;17930;48.592;8.868;2023-12-04T03:33:08;20.17;;;10.68;;
6828;SDS011;17930;48.592;8.868;2023-12-04T03:35:35;22.15;;;10.63;;
6828;SDS011;17930;48.592;8.868;2023-12-04T03:38:01;30.00;;;11.95;;
6828;SDS011;17930;48.592;8.868;2023-12-04T03:40:28;26.63;;;11.95;;
6828;SDS011;17930;48.592;8.868;2023-12-04T03:42:55;20.70;;;11.23;;
6828;SDS011;17930;48.592;8.868;2023-12-04T03:45:20;18.47;;;10.07;;
6828;SDS011;17930;48.592;8.868;2023-12-04T03:47:48;24.40;;;9.80;;
6828;SDS011;17930;48.592;8.868;2023-12-04T03:50:15;16.33;;;8.75;;
6828;SDS011;17930;48.592;8.868;2023-12-04T03:52:42;20.83;;;10.70;;
6828;SDS011;17930;48.592;8.868;2023-12-04T03:55:09;19.27;;;10.13;;
6828;SDS011;17930;48.592;8.868;2023-12-04T03:57:35;22.83;;;9.73;;
6828;SDS011;17930;48.592;8.868;2023-12-04T04:00:03;20.20;;;9.13;;
6828;SDS011;17930;48.592;8.868;2023-12-04T04:02:30;22.65;;;10.30;;
6828;SDS011;17930;48.592;8.868;2023-12-04T04:04:58;22.38;;;10.15;;
6828;SDS011;17930;48.592;8.868;2023-12-04T04:07:25;19.02;;;9.52;;
6828;SDS011;17930;48.592;8.868;2023-12-04T04:09:51;20.33;;;9.27;;
6828;SDS011;17930;48.592;8.868;2023-12-04T04:12:18;20.55;;;9.80;;
6828;SDS011;17930;48.592;8.868;2023-12-04T04:14:45;19.60;;;10.10;;
6828;SDS011;17930;48.592;8.868;2023-12-04T04:17:11;22.25;;;9.75;;
6828;SDS011;17930;48.592;8.868;2023-12-04T04:19:38;23.70;;;10.73;;
6828;SDS011;17930;48.592;8.868;2023-12-04T04:22:06;20.52;;;10.43;;
6828;SDS011;17930;48.592;8.868;2023-12-04T04:24:33;18.35;;;10.10;;
6828;SDS011;17930;48.592;8.868;2023-12-04T04:26:59;19.15;;;9.48;;
6828;SDS011;17930;48.592;8.868;2023-12-04T04:29:26;21.90;;;10.52;;
6828;SDS011;17930;48.592;8.868;2023-12-04T04:31:53;17.73;;;9.52;;
6828;SDS011;17930;48.592;8.868;2023-12-04T04:34:20;23.30;;;10.38;;
6828;SDS011;17930;48.592;8.868;2023-12-04T04:36:48;24.10;;;9.90;;
6828;SDS011;17930;48.592;8.868;2023-12-04T04:39:15;24.65;;;10.82;;
6828;SDS011;17930;48.592;8.868;2023-12-04T04:41:42;19.38;;;10.00;;
6828;SDS011;17930;48.592;8.868;2023-12-04T04:44:10;18.58;;;9.95;;
6828;SDS011;17930;48.592;8.868;2023-12-04T04:46:37;23.92;;;9.35;;
6828;SDS011;17930;48.592;8.868;2023-12-04T04:49:04;25.98;;;11.70;;
6828;SDS011;17930;48.592;8.868;2023-12-04T04:51:32;22.05;;;9.57;;
6828;SDS011;17930;48.592;8.868;2023-12-04T04:54:00;19.38;;;9.48;;
6828;SDS011;17930;48.592;8.868;2023-12-04T04:56:28;17.60;;;8.82;;
6828;SDS011;17930;48.592;8.868;2023-12-04T04:58:56;20.88;;;9.65;;
6828;SDS011;17930;48.592;8.868;2023-12-04T05:01:22;19.77;;;10.20;;
6828;SDS011;17930;48.592;8.868;2023-12-04T05:03:49;19.95;;;9.63;;
6828;SDS011;17930;48.592;8.868;2023-12-04T05:06:16;20.40;;;9.90;;
6828;SDS011;17930;48.592;8.868;2023-12-04T05:08:43;18.13;;;9.32;;
6828;SDS011;17930;48.592;8.868;2023-12-04T05:11:09;19.85;;;9.80;;
6828;SDS011;17930;48.592;8.868;2023-12-04T05:13:38;24.38;;;10.25;;
6828;SDS011;17930;48.592;8.868;2023-12-04T05:16:05;19.27;;;10.25;;
6828;SDS011;17930;48.592;8.868;2023-12-04T05:18:32;21.60;;;9.88;;
6828;SDS011;17930;48.592;8.868;2023-12-04T05:20:59;20.63;;;10.55;;
6828;SDS011;17930;48.592;8.868;2023-12-04T05:23:26;23.10;;;10.05;;
6828;SDS011;17930;48.592;8.868;2023-12-04T05:25:52;19.48;;;9.27;;
6828;SDS011;17930;48.592;8.868;2023-12-04T05:28:19;19.83;;;10.18;;
6828;SDS011;17930;48.592;8.868;2023-12-04T05:30:49;22.50;;;10.35;;
6828;SDS011;17930;48.592;8.868;2023-12-04T05:33:16;22.88;;;9.75;;
6828;SDS011;17930;48.592;8.868;2023-12-04T05:35:43;22.58;;;10.57;;
6828;SDS011;17930;48.592;8.868;2023-12-04T05:38:09;18.70;;;9.80;;
6828;SDS011;17930;48.592;8.868;2023-12-04T05:40:36;18.90;;;9.57;;
6828;SDS011;17930;48.592;8.868;2023-12-04T05:43:03;16.42;;;8.48;;
6828;SDS011;17930;48.592;8.868;2023-12-04T05:45:30;17.95;;;9.48;;
6828;SDS011;17930;48.592;8.868;2023-12-04T05:47:58;21.67;;;10.00;;
6828;SDS011;17930;48.592;8.868;2023-12-04T05:50:25;22.05;;;9.23;;
6828;SDS011;17930;48.592;8.868;2023-12-04T05:52:51;19.67;;;8.88;;
6828;SDS011;17930;48.592;8.868;2023-12-04T05:55:18;20.90;;;10.30;;
6828;SDS011;17930;48.592;8.868;2023-12-04T05:57:45;24.13;;;10.60;;
6828;SDS011;17930;48.592;8.868;2023-12-04T06:00:12;19.33;;;8.88;;
6828;SDS011;17930;48.592;8.868;2023-12-04T06:02:40;23.42;;;11.38;;
6828;SDS011;17930;48.592;8.868;2023-12-04T06:05:10;17.65;;;9.63;;
6828;SDS011;17930;48.592;8.868;2023-12-04T06:07:37;20.00;;;10.57;;
6828;SDS011;17930;48.592;8.868;2023-12-04T06:10:04;22.20;;;10.63;;
6828;SDS011;17930;48.592;8.868;2023-12-04T06:12:32;24.27;;;9.85;;
6828;SDS011;17930;48.592;8.868;2023-12-04T06:14:58;23.23;;;10.48;;
6828;SDS011;17930;48.592;8.868;2023-12-04T06:17:25;24.75;;;11.60;;
6828;SDS011;17930;48.592;8.868;2023-12-04T06:19:52;20.58;;;10.43;;
6828;SDS011;17930;48.592;8.868;2023-12-04T06:22:21;19.73;;;9.93;;
6828;SDS011;17930;48.592;8.868;2023-12-04T06:24:48;21.35;;;10.75;;
6828;SDS011;17930;48.592;8.868;2023-12-04T06:27:16;20.20;;;10.82;;
6828;SDS011;17930;48.592;8.868;2023-12-04T06:29:45;28.95;;;12.32;;
6828;SDS011;17930;48.592;8.868;2023-12-04T06:32:12;22.98;;;9.60;;
6828;SDS011;17930;48.592;8.868;2023-12-04T06:34:40;24.75;;;10.77;;
6828;SDS011;17930;48.592;8.868;2023-12-04T06:37:08;23.52;;;10.15;;
6828;SDS011;17930;48.592;8.868;2023-12-04T06:39:37;21.35;;;10.40;;
6828;SDS011;17930;48.592;8.868;2023-12-04T06:42:05;17.10;;;9.00;;
6828;SDS011;17930;48.592;8.868;2023-12-04T06:44:34;19.80;;;8.77;;
6828;SDS011;17930;48.592;8.868;2023-12-04T06:47:01;20.80;;;9.95;;
6828;SDS011;17930;48.592;8.868;2023-12-04T06:49:30;24.13;;;10.85;;
6828;SDS011;17930;48.592;8.868;2023-12-04T06:51:58;35.70;;;15.55;;
6828;SDS011;17930;48.592;8.868;2023-12-04T06:54:25;22.80;;;11.95;;
6828;SDS011;17930;48.592;8.868;2023-12-04T06:56:53;24.27;;;10.73;;
6828;SDS011;17930;48.592;8.868;2023-12-04T06:59:20;25.90;;;14.43;;
6828;SDS011;17930;48.592;8.868;2023-12-04T07:01:47;26.45;;;11.65;;
6828;SDS011;17930;48.592;8.868;2023-12-04T07:04:15;24.23;;;11.27;;
6828;SDS011;17930;48.592;8.868;2023-12-04T07:06:46;38.88;;;17.50;;
6828;SDS011;17930;48.592;8.868;2023-12-04T07:09:13;24.30;;;11.48;;
6828;SDS011;17930;48.592;8.868;2023-12-04T07:11:40;24.40;;;11.75;;
6828;SDS011;17930;48.592;8.868;2023-12-04T07:14:10;17.55;;;9.55;;
6828;SDS011;17930;48.592;8.868;2023-12-04T07:16:40;27.17;;;11.93;;
6828;SDS011;17930;48.592;8.868;2023-12-04T07:19:07;23.88;;;11.60;;
6828;SDS011;17930;48.592;8.868;2023-12-04T07:21:34;24.15;;;11.75;;
6828;SDS011;17930;48.592;8.868;2023-12-04T07:24:02;24.73;;;11.95;;
6828;SDS011;17930;48.592;8.868;2023-12-04T07:26:30;25.58;;;12.75;;
6828;SDS011;17930;48.592;8.868;2023-12-04T07:28:57;29.85;;;14.70;;
6828;SDS011;17930;48.592;8.868;2023-12-04T07:31:25;28.90;;;13.90;;
6828;SDS011;17930;48.592;8.868;2023-12-04T07:33:52;23.38;;;12.23;;
6828;SDS011;17930;48.592;8.868;2023-12-04T07:36:19;29.95;;;12.63;;
6828;SDS011;17930;48.592;8.868;2023-12-04T07:38:46;24.85;;;13.15;;
6828;SDS011;17930;48.592;8.868;2023-12-04T07:41:13;40.67;;;17.45;;
6828;SDS011;17930;48.592;8.868;2023-12-04T07:43:41;31.88;;;14.25;;
6828;SDS011;17930;48.592;8.868;2023-12-04T07:46:09;21.73;;;11.63;;
6828;SDS011;17930;48.592;8.868;2023-12-04T07:48:37;28.38;;;13.57;;
6828;SDS011;17930;48.592;8.868;2023-12-04T07:51:05;26.38;;;12.63;;
6828;SDS011;17930;48.592;8.868;2023-12-04T07:53:32;26.38;;;13.15;;
6828;SDS011;17930;48.592;8.868;2023-12-04T07:56:00;23.10;;;10.80;;
6828;SDS011;17930;48.592;8.868;2023-12-04T07:58:28;20.48;;;9.77;;
6828;SDS011;17930;48.592;8.868;2023-12-04T08:00:55;21.60;;;11.18;;
6828;SDS011;17930;48.592;8.868;2023-12-04T08:03:21;18.55;;;10.65;;
6828;SDS011;17930;48.592;8.868;2023-12-04T08:05:52;18.80;;;10.07;;
6828;SDS011;17930;48.592;8.868;2023-12-04T08:08:19;21.48;;;10.07;;
6828;SDS011;17930;48.592;8.868;2023-12-04T08:10:47;20.95;;;9.55;;
6828;SDS011;17930;48.592;8.868;2023-12-04T08:13:13;20.88;;;10.32;;
6828;SDS011;17930;48.592;8.868;2023-12-04T08:15:40;22.20;;;9.88;;
6828;SDS011;17930;48.592;8.868;2023-12-04T08:18:07;23.13;;;10.85;;
6828;SDS011;17930;48.592;8.868;2023-12-04T08:20:34;16.25;;;9.07;;
6828;SDS011;17930;48.592;8.868;2023-12-04T08:23:02;23.67;;;11.43;;
6828;SDS011;17930;48.592;8.868;2023-12-04T08:25:32;23.40;;;10.85;;
6828;SDS011;17930;48.592;8.868;2023-12-04T08:27:58;25.58;;;11.60;;
6828;SDS011;17930;48.592;8.868;2023-12-04T08:30:26;24.20;;;11.43;;
6828;SDS011;17930;48.592;8.868;2023-12-04T08:32:53;27.15;;;13.75;;
6828;SDS011;17930;48.592;8.868;2023-12-04T08:35:20;27.10;;;13.18;;
6828;SDS011;17930;48.592;8.868;2023-12-04T08:37:47;27.50;;;12.18;;
6828;SDS011;17930;48.592;8.868;2023-12-04T08:40:15;23.27;;;11.25;;
6828;SDS011;17930;48.592;8.868;2023-12-04T08:42:42;22.75;;;11.07;;
6828;SDS011;17930;48.592;8.868;2023-12-04T08:45:09;23.52;;;11.70;;
6828;SDS011;17930;48.592;8.868;2023-12-04T08:47:36;24.58;;;12.43;;
6828;SDS011;17930;48.592;8.868;2023-12-04T08:50:03;22.15;;;11.57;;
6828;SDS011;17930;48.592;8.868;2023-12-04T08:52:31;28.20;;;14.10;;
6828;SDS011;17930;48.592;8.868;2023-12-04T08:54:58;24.73;;;11.63;;
6828;SDS011;17930;48.592;8.868;2023-12-04T08:57:27;23.98;;;10.75;;
6828;SDS011;17930;48.592;8.868;2023-12-04T08:59:53;24.42;;;11.45;;
6828;SDS011;17930;48.592;8.868;2023-12-04T09:02:20;21.38;;;10.98;;
6828;SDS011;17930;48.592;8.868;2023-12-04T09:04:47;20.13;;;11.30;;
6828;SDS011;17930;48.592;8.868;2023-12-04T09:07:14;25.08;;;11.90;;
6828;SDS011;17930;48.592;8.868;2023-12-04T09:09:41;22.40;;;11.27;;
6828;SDS011;17930;48.592;8.868;2023-12-04T09:12:09;22.25;;;12.27;;
6828;SDS011;17930;48.592;8.868;2023-12-04T09:14:37;26.50;;;12.27;;
6828;SDS011;17930;48.592;8.868;2023-12-04T09:17:04;26.95;;;13.68;;
6828;SDS011;17930;48.592;8.868;2023-12-04T09:19:31;27.45;;;13.48;;
6828;SDS011;17930;48.592;8.868;2023-12-04T09:21:58;27.20;;;12.55;;
6828;SDS011;17930;48.592;8.868;2023-12-04T09:24:25;22.20;;;12.70;;
6828;SDS011;17930;48.592;8.868;2023-12-04T09:26:52;26.15;;;12.70;;
6828;SDS011;17930;48.592;8.868;2023-12-04T09:29:20;18.83;;;11.60;;
6828;SDS011;17930;48.592;8.868;2023-12-04T09:31:51;22.88;;;12.15;;
6828;SDS011;17930;48.592;8.868;2023-12-04T09:34:18;24.27;;;12.43;;
6828;SDS011;17930;48.592;8.868;2023-12-04T09:36:45;21.42;;;10.57;;
6828;SDS011;17930;48.592;8.868;2023-12-04T09:39:12;22.65;;;12.30;;
6828;SDS011;17930;48.592;8.868;2023-12-04T09:41:40;23.40;;;11.60;;
6828;SDS011;17930;48.592;8.868;2023-12-04T09:44:09;24.05;;;12.18;;
6828;SDS011;17930;48.592;8.868;2023-12-04T09:46:36;21.85;;;11.77;;
6828;SDS011;17930;48.592;8.868;2023-12-04T09:49:04;21.17;;;11.90;;
6828;SDS011;17930;48.592;8.868;2023-12-04T09:51:32;21.65;;;12.15;;
6828;SDS011;17930;48.592;8.868;2023-12-04T09:53:59;20.40;;;10.73;;
6828;SDS011;17930;48.592;8.868;2023-12-04T09:56:28;22.23;;;12.52;;
6828;SDS011;17930;48.592;8.868;2023-12-04T09:58:57;28.20;;;12.25;;
6828;SDS011;17930;48.592;8.868;2023-12-04T10:01:25;23.08;;;12.20;;
6828;SDS011;17930;48.592;8.868;2023-12-04T10:03:52;23.02;;;11.57;;
6828;SDS011;17930;48.592;8.868;2023-12-04T10:06:20;19.80;;;9.68;;
6828;SDS011;17930;48.592;8.868;2023-12-04T10:08:49;23.58;;;10.90;;
6828;SDS011;17930;48.592;8.868;2023-12-04T10:11:17;19.75;;;10.02;;
6828;SDS011;17930;48.592;8.868;2023-12-04T10:13:43;18.75;;;9.70;;
6828;SDS011;17930;48.592;8.868;2023-12-04T10:16:10;18.92;;;9.05;;
6828;SDS011;17930;48.592;8.868;2023-12-04T10:18:37;17.42;;;9.80;;
6828;SDS011;17930;48.592;8.868;2023-12-04T10:21:04;18.40;;;8.98;;
6828;SDS011;17930;48.592;8.868;2023-12-04T10:23:38;16.20;;;8.45;;
6828;SDS011;17930;48.592;8.868;2023-12-04T10:26:06;16.85;;;8.77;;
6828;SDS011;17930;48.592;8.868;2023-12-04T10:28:34;14.57;;;8.15;;
6828;SDS011;17930;48.592;8.868;2023-12-04T10:31:00;16.23;;;8.82;;
6828;SDS011;17930;48.592;8.868;2023-12-04T10:33:28;16.80;;;9.27;;
6828;SDS011;17930;48.592;8.868;2023-12-04T10:35:56;14.57;;;8.15;;
6828;SDS011;17930;48.592;8.868;2023-12-04T10:38:22;17.67;;;9.57;;
6828;SDS011;17930;48.592;8.868;2023-12-04T10:40:52;17.73;;;8.98;;
6828;SDS011;17930;48.592;8.868;2023-12-04T10:43:20;16.90;;;8.70;;
6828;SDS011;17930;48.592;8.868;2023-12-04T10:45:49;15.02;;;7.72;;
6828;SDS011;17930;48.592;8.868;2023-12-04T10:48:16;17.70;;;8.20;;
6828;SDS011;17930;48.592;8.868;2023-12-04T10:50:45;15.65;;;8.63;;
6828;SDS011;17930;48.592;8.868;2023-12-04T10:53:14;17.17;;;8.52;;
6828;SDS011;17930;48.592;8.868;2023-12-04T10:55:42;14.98;;;7.68;;
6828;SDS011;17930;48.592;8.868;2023-12-04T10:58:12;17.75;;;10.48;;
6828;SDS011;17930;48.592;8.868;2023-12-04T11:00:42;17.85;;;9.93;;
6828;SDS011;17930;48.592;8.868;2023-12-04T11:03:13;15.82;;;9.18;;
6828;SDS011;17930;48.592;8.868;2023-12-04T11:05:45;15.55;;;9.02;;
6828;SDS011;17930;48.592;8.868;2023-12-04T11:08:17;18.08;;;9.13;;
6828;SDS011;17930;48.592;8.868;2023-12-04T11:10:48;16.23;;;9.05;;
6828;SDS011;17930;48.592;8.868;2023-12-04T11:13:23;14.75;;;8.65;;
6828;SDS011;17930;48.592;8.868;2023-12-04T11:15:53;16.15;;;8.85;;
6828;SDS011;17930;48.592;8.868;2023-12-04T11:18:25;19.65;;;9.45;;
6828;SDS011;17930;48.592;8.868;2023-12-04T11:20:56;18.85;;;9.50;;
6828;SDS011;17930;48.592;8.868;2023-12-04T11:23:25;14.25;;;8.27;;
6828;SDS011;17930;48.592;8.868;2023-12-04T11:25:53;15.93;;;8.48;;
6828;SDS011;17930;48.592;8.868;2023-12-04T11:28:20;15.77;;;8.82;;
6828;SDS011;17930;48.592;8.868;2023-12-04T11:30:49;14.05;;;7.85;;
6828;SDS011;17930;48.592;8.868;2023-12-04T11:33:16;17.80;;;9.48;;
6828;SDS011;17930;48.592;8.868;2023-12-04T11:35:43;15.55;;;9.05;;
6828;SDS011;17930;48.592;8.868;2023-12-04T11:38:12;30.73;;;8.73;;
6828;SDS011;17930;48.592;8.868;2023-12-04T11:40:40;15.80;;;8.55;;
6828;SDS011;17930;48.592;8.868;2023-12-04T11:43:20;14.30;;;7.85;;
6828;SDS011;17930;48.592;8.868;2023-12-04T11:45:50;19.33;;;9.88;;
6828;SDS011;17930;48.592;8.868;2023-12-04T11:48:22;15.65;;;9.07;;
6828;SDS011;17930;48.592;8.868;2023-12-04T11:50:49;16.83;;;9.40;;
6828;SDS011;17930;48.592;8.868;2023-12-04T11:53:16;19.13;;;10.23;;
6828;SDS011;17930;48.592;8.868;2023-12-04T11:55:43;20.30;;;9.48;;
6828;SDS011;17930;48.592;8.868;2023-12-04T11:58:10;19.63;;;9.90;;
6828;SDS011;17930;48.592;8.868;2023-12-04T12:00:39;16.30;;;9.93;;
6828;SDS011;17930;48.592;8.868;2023-12-04T12:03:08;19.63;;;9.57;;
6828;SDS011;17930;48.592;8.868;2023-12-04T12:05:38;18.45;;;10.48;;
6828;SDS011;17930;48.592;8.868;2023-12-04T12:08:08;19.52;;;11.00;;
6828;SDS011;17930;48.592;8.868;2023-12-04T12:10:36;15.32;;;8.55;;
6828;SDS011;17930;48.592;8.868;2023-12-04T12:13:04;16.63;;;8.70;;
6828;SDS011;17930;48.592;8.868;2023-12-04T12:15:31;14.98;;;8.80;;
6828;SDS011;17930;48.592;8.868;2023-12-04T12:18:00;15.02;;;8.27;;
6828;SDS011;17930;48.592;8.868;2023-12-04T12:20:27;16.15;;;8.35;;
6828;SDS011;17930;48.592;8.868;2023-12-04T12:22:53;14.80;;;8.20;;
6828;SDS011;17930;48.592;8.868;2023-12-04T12:25:20;15.15;;;7.65;;
6828;SDS011;17930;48.592;8.868;2023-12-04T12:27:48;13.02;;;7.63;;
6828;SDS011;17930;48.592;8.868;2023-12-04T12:30:14;14.95;;;8.57;;
6828;SDS011;17930;48.592;8.868;2023-12-04T12:32:41;13.15;;;8.10;;
6828;SDS011;17930;48.592;8.868;2023-12-04T12:35:09;16.83;;;8.43;;
6828;SDS011;17930;48.592;8.868;2023-12-04T12:37:38;17.33;;;9.45;;
6828;SDS011;17930;48.592;8.868;2023-12-04T12:40:05;16.40;;;8.50;;
6828;SDS011;17930;48.592;8.868;2023-12-04T12:42:35;14.63;;;8.85;;
6828;SDS011;17930;48.592;8.868;2023-12-04T12:45:04;16.63;;;8.82;;
6828;SDS011;17930;48.592;8.868;2023-12-04T12:47:31;11.98;;;7.43;;
6828;SDS011;17930;48.592;8.868;2023-12-04T12:50:00;13.70;;;7.95;;
6828;SDS011;17930;48.592;8.868;2023-12-04T12:52:28;14.10;;;8.00;;
6828;SDS011;17930;48.592;8.868;2023-12-04T12:54:55;13.85;;;7.70;;
6828;SDS011;17930;48.592;8.868;2023-12-04T12:57:22;11.57;;;7.45;;
6828;SDS011;17930;48.592;8.868;2023-12-04T12:59:50;13.63;;;7.38;;
6828;SDS011;17930;48.592;8.868;2023-12-04T13:02:16;14.60;;;7.97;;
6828;SDS011;17930;48.592;8.868;2023-12-04T13:04:43;16.55;;;9.05;;
6828;SDS011;17930;48.592;8.868;2023-12-04T13:07:10;14.73;;;9.13;;
6828;SDS011;17930;48.592;8.868;2023-12-04T13:09:38;17.73;;;9.73;;
6828;SDS011;17930;48.592;8.868;2023-12-04T13:12:06;17.30;;;9.70;;
6828;SDS011;17930;48.592;8.868;2023-12-04T13:14:33;15.50;;;8.30;;
6828;SDS011;17930;48.592;8.868;2023-12-04T13:17:00;18.63;;;9.70;;
6828;SDS011;17930;48.592;8.868;2023-12-04T13:19:28;18.67;;;9.48;;
6828;SDS011;17930;48.592;8.868;2023-12-04T13:21:56;22.33;;;9.88;;
6828;SDS011;17930;48.592;8.868;2023-12-04T13:24:23;18.50;;;9.73;;
6828;SDS011;17930;48.592;8.868;2023-12-04T13:26:52;18.90;;;9.63;;
6828;SDS011;17930;48.592;8.868;2023-12-04T13:29:18;17.88;;;10.05;;
6828;SDS011;17930;48.592;8.868;2023-12-04T13:31:45;14.70;;;8.88;;
6828;SDS011;17930;48.592;8.868;2023-12-04T13:34:15;18.38;;;10.02;;
6828;SDS011;17930;48.592;8.868;2023-12-04T13:36:42;16.75;;;8.50;;
6828;SDS011;17930;48.592;8.868;2023-12-04T13:39:08;18.38;;;9.95;;
6828;SDS011;17930;48.592;8.868;2023-12-04T13:41:42;15.50;;;9.27;;
6828;SDS011;17930;48.592;8.868;2023-12-04T13:44:29;19.23;;;9.77;;
6828;SDS011;17930;48.592;8.868;2023-12-04T13:46:56;17.20;;;9.80;;
6828;SDS011;17930;48.592;8.868;2023-12-04T13:49:23;17.48;;;8.75;;
6828;SDS011;17930;48.592;8.868;2023-12-04T13:51:49;20.23;;;10.68;;
6828;SDS011;17930;48.592;8.868;2023-12-04T13:54:16;19.30;;;9.20;;
6828;SDS011;17930;48.592;8.868;2023-12-04T13:56:46;17.15;;;9.40;;
6828;SDS011;17930;48.592;8.868;2023-12-04T13:59:19;17.10;;;9.93;;
6828;SDS011;17930;48.592;8.868;2023-12-04T14:01:48;17.60;;;9.45;;
6828;SDS011;17930;48.592;8.868;2023-12-04T14:04:16;15.95;;;9.20;;
6828;SDS011;17930;48.592;8.868;2023-12-04T14:06:44;18.27;;;10.18;;
6828;SDS011;17930;48.592;8.868;2023-12-04T14:09:11;21.02;;;11.38;;
6828;SDS011;17930;48.592;8.868;2023-12-04T14:11:41;16.42;;;9.27;;
6828;SDS011;17930;48.592;8.868;2023-12-04T14:14:09;16.55;;;9.88;;
6828;SDS011;17930;48.592;8.868;2023-12-04T14:16:36;19.25;;;11.68;;
6828;SDS011;17930;48.592;8.868;2023-12-04T14:19:04;22.00;;;12.65;;
6828;SDS011;17930;48.592;8.868;2023-12-04T14:21:30;15.93;;;9.05;;
6828;SDS011;17930;48.592;8.868;2023-12-04T14:23:57;24.85;;;10.88;;
6828;SDS011;17930;48.592;8.868;2023-12-04T14:26:24;19.52;;;10.15;;
6828;SDS011;17930;48.592;8.868;2023-12-04T14:28:54;17.92;;;11.02;;
6828;SDS011;17930;48.592;8.868;2023-12-04T14:31:21;19.50;;;10.13;;
6828;SDS011;17930;48.592;8.868;2023-12-04T14:33:49;22.50;;;11.48;;
6828;SDS011;17930;48.592;8.868;2023-12-04T14:36:16;17.67;;;10.13;;
6828;SDS011;17930;48.592;8.868;2023-12-04T14:38:43;19.55;;;10.05;;
6828;SDS011;17930;48.592;8.868;2023-12-04T14:41:09;21.25;;;10.52;;
6828;SDS011;17930;48.592;8.868;2023-12-04T14:43:36;16.73;;;9.80;;